<?xml version="1.0" encoding="UTF-8" standalone="no" ?>
<gpx xmlns="http://www.topografix.com/GPX/1/1" xmlns:xsi="http://www.w3.org/2001/XMLSchema-instance" xsi:schemaLocation="http://www.topografix.com/GPX/1/1 http://www.topografix.com/GPX/1/1/gpx.xsd" version="1.1" creator="VisuGPX - https://www.visugpx.com">
  <metadata>
    <name>2021-03-21 Hts de teting...</name>
  </metadata>
  <trk>
    <name><![CDATA[2021-03-21 10:01:42]]></name>
    <trkseg>
      <trkpt lat="49.08638" lon="6.69566">
        <ele>296.22</ele>
        <time>2021-03-21T06:09:01Z</time>
      </trkpt>
      <trkpt lat="49.08638" lon="6.69565">
        <ele>296.22</ele>
        <time>2021-03-21T06:09:02Z</time>
      </trkpt>
      <trkpt lat="49.08637" lon="6.69565">
        <ele>292.38</ele>
        <time>2021-03-21T06:09:05Z</time>
      </trkpt>
      <trkpt lat="49.08638" lon="6.69565">
        <ele>292.38</ele>
        <time>2021-03-21T06:09:06Z</time>
      </trkpt>
      <trkpt lat="49.08637" lon="6.69563">
        <ele>292.38</ele>
        <time>2021-03-21T06:09:24Z</time>
      </trkpt>
      <trkpt lat="49.08636" lon="6.69565">
        <ele>292.86</ele>
        <time>2021-03-21T06:09:55Z</time>
      </trkpt>
      <trkpt lat="49.08637" lon="6.69564">
        <ele>292.38</ele>
        <time>2021-03-21T06:10:26Z</time>
      </trkpt>
      <trkpt lat="49.08637" lon="6.69564">
        <ele>292.38</ele>
        <time>2021-03-21T06:10:59Z</time>
      </trkpt>
      <trkpt lat="49.08637" lon="6.69566">
        <ele>292.38</ele>
        <time>2021-03-21T06:11:32Z</time>
      </trkpt>
      <trkpt lat="49.08636" lon="6.69565">
        <ele>292.38</ele>
        <time>2021-03-21T06:12:04Z</time>
      </trkpt>
      <trkpt lat="49.08637" lon="6.69563">
        <ele>292.86</ele>
        <time>2021-03-21T06:12:21Z</time>
      </trkpt>
      <trkpt lat="49.08639" lon="6.69548">
        <ele>293.82</ele>
        <time>2021-03-21T06:12:34Z</time>
      </trkpt>
      <trkpt lat="49.08652" lon="6.6951">
        <ele>294.78</ele>
        <time>2021-03-21T06:12:58Z</time>
      </trkpt>
      <trkpt lat="49.08667" lon="6.69479">
        <ele>295.74</ele>
        <time>2021-03-21T06:13:19Z</time>
      </trkpt>
      <trkpt lat="49.08683" lon="6.69439">
        <ele>297.18</ele>
        <time>2021-03-21T06:13:44Z</time>
      </trkpt>
      <trkpt lat="49.08701" lon="6.694">
        <ele>298.15</ele>
        <time>2021-03-21T06:14:10Z</time>
      </trkpt>
      <trkpt lat="49.08718" lon="6.69369">
        <ele>298.63</ele>
        <time>2021-03-21T06:14:30Z</time>
      </trkpt>
      <trkpt lat="49.08738" lon="6.69336">
        <ele>299.59</ele>
        <time>2021-03-21T06:14:53Z</time>
      </trkpt>
      <trkpt lat="49.08763" lon="6.69303">
        <ele>300.55</ele>
        <time>2021-03-21T06:15:20Z</time>
      </trkpt>
      <trkpt lat="49.08782" lon="6.69282">
        <ele>301.51</ele>
        <time>2021-03-21T06:15:38Z</time>
      </trkpt>
      <trkpt lat="49.08802" lon="6.6926">
        <ele>302.95</ele>
        <time>2021-03-21T06:15:57Z</time>
      </trkpt>
      <trkpt lat="49.08828" lon="6.69238">
        <ele>305.36</ele>
        <time>2021-03-21T06:16:20Z</time>
      </trkpt>
      <trkpt lat="49.08853" lon="6.69213">
        <ele>306.8</ele>
        <time>2021-03-21T06:16:43Z</time>
      </trkpt>
      <trkpt lat="49.08875" lon="6.69187">
        <ele>309.68</ele>
        <time>2021-03-21T06:17:05Z</time>
      </trkpt>
      <trkpt lat="49.08897" lon="6.69163">
        <ele>312.57</ele>
        <time>2021-03-21T06:17:27Z</time>
      </trkpt>
      <trkpt lat="49.08912" lon="6.69151">
        <ele>314.01</ele>
        <time>2021-03-21T06:17:41Z</time>
      </trkpt>
      <trkpt lat="49.08932" lon="6.69131">
        <ele>314.97</ele>
        <time>2021-03-21T06:18:00Z</time>
      </trkpt>
      <trkpt lat="49.08954" lon="6.69111">
        <ele>317.37</ele>
        <time>2021-03-21T06:18:21Z</time>
      </trkpt>
      <trkpt lat="49.08975" lon="6.69084">
        <ele>319.3</ele>
        <time>2021-03-21T06:18:43Z</time>
      </trkpt>
      <trkpt lat="49.0899" lon="6.69059">
        <ele>321.22</ele>
        <time>2021-03-21T06:19:06Z</time>
      </trkpt>
      <trkpt lat="49.09007" lon="6.69034">
        <ele>322.66</ele>
        <time>2021-03-21T06:19:24Z</time>
      </trkpt>
      <trkpt lat="49.09023" lon="6.69009">
        <ele>323.62</ele>
        <time>2021-03-21T06:19:43Z</time>
      </trkpt>
      <trkpt lat="49.09038" lon="6.68996">
        <ele>325.06</ele>
        <time>2021-03-21T06:20:02Z</time>
      </trkpt>
      <trkpt lat="49.09051" lon="6.68961">
        <ele>326.02</ele>
        <time>2021-03-21T06:20:18Z</time>
      </trkpt>
      <trkpt lat="49.09071" lon="6.6893">
        <ele>328.91</ele>
        <time>2021-03-21T06:20:41Z</time>
      </trkpt>
      <trkpt lat="49.09091" lon="6.689">
        <ele>329.87</ele>
        <time>2021-03-21T06:21:03Z</time>
      </trkpt>
      <trkpt lat="49.09092" lon="6.68875">
        <ele>330.35</ele>
        <time>2021-03-21T06:21:19Z</time>
      </trkpt>
      <trkpt lat="49.0907" lon="6.68868">
        <ele>330.35</ele>
        <time>2021-03-21T06:21:38Z</time>
      </trkpt>
      <trkpt lat="49.09044" lon="6.68864">
        <ele>328.43</ele>
        <time>2021-03-21T06:21:59Z</time>
      </trkpt>
      <trkpt lat="49.09018" lon="6.68859">
        <ele>327.47</ele>
        <time>2021-03-21T06:22:19Z</time>
      </trkpt>
      <trkpt lat="49.09003" lon="6.68839">
        <ele>326.99</ele>
        <time>2021-03-21T06:22:40Z</time>
      </trkpt>
      <trkpt lat="49.09005" lon="6.68802">
        <ele>327.95</ele>
        <time>2021-03-21T06:22:59Z</time>
      </trkpt>
      <trkpt lat="49.09008" lon="6.68756">
        <ele>327.95</ele>
        <time>2021-03-21T06:23:23Z</time>
      </trkpt>
      <trkpt lat="49.0901" lon="6.68708">
        <ele>329.39</ele>
        <time>2021-03-21T06:23:48Z</time>
      </trkpt>
      <trkpt lat="49.0901" lon="6.68683">
        <ele>330.35</ele>
        <time>2021-03-21T06:24:01Z</time>
      </trkpt>
      <trkpt lat="49.09006" lon="6.68635">
        <ele>331.31</ele>
        <time>2021-03-21T06:24:26Z</time>
      </trkpt>
      <trkpt lat="49.08999" lon="6.686">
        <ele>332.27</ele>
        <time>2021-03-21T06:24:45Z</time>
      </trkpt>
      <trkpt lat="49.08986" lon="6.68556">
        <ele>334.68</ele>
        <time>2021-03-21T06:25:10Z</time>
      </trkpt>
      <trkpt lat="49.08971" lon="6.68517">
        <ele>337.08</ele>
        <time>2021-03-21T06:25:34Z</time>
      </trkpt>
      <trkpt lat="49.08956" lon="6.68486">
        <ele>338.52</ele>
        <time>2021-03-21T06:25:54Z</time>
      </trkpt>
      <trkpt lat="49.08937" lon="6.68456">
        <ele>340.44</ele>
        <time>2021-03-21T06:26:17Z</time>
      </trkpt>
      <trkpt lat="49.08925" lon="6.68439">
        <ele>341.89</ele>
        <time>2021-03-21T06:26:33Z</time>
      </trkpt>
      <trkpt lat="49.08909" lon="6.68419">
        <ele>343.33</ele>
        <time>2021-03-21T06:26:50Z</time>
      </trkpt>
      <trkpt lat="49.08889" lon="6.68402">
        <ele>344.77</ele>
        <time>2021-03-21T06:27:09Z</time>
      </trkpt>
      <trkpt lat="49.08866" lon="6.68386">
        <ele>346.21</ele>
        <time>2021-03-21T06:27:30Z</time>
      </trkpt>
      <trkpt lat="49.08843" lon="6.68375">
        <ele>348.13</ele>
        <time>2021-03-21T06:27:49Z</time>
      </trkpt>
      <trkpt lat="49.08835" lon="6.68371">
        <ele>349.1</ele>
        <time>2021-03-21T06:27:56Z</time>
      </trkpt>
      <trkpt lat="49.08833" lon="6.68369">
        <ele>349.1</ele>
        <time>2021-03-21T06:27:58Z</time>
      </trkpt>
      <trkpt lat="49.08808" lon="6.68362">
        <ele>351.02</ele>
        <time>2021-03-21T06:28:18Z</time>
      </trkpt>
      <trkpt lat="49.08783" lon="6.68351">
        <ele>351.98</ele>
        <time>2021-03-21T06:28:39Z</time>
      </trkpt>
      <trkpt lat="49.08764" lon="6.68342">
        <ele>353.9</ele>
        <time>2021-03-21T06:28:56Z</time>
      </trkpt>
      <trkpt lat="49.08734" lon="6.68328">
        <ele>356.31</ele>
        <time>2021-03-21T06:29:20Z</time>
      </trkpt>
      <trkpt lat="49.08708" lon="6.68307">
        <ele>357.27</ele>
        <time>2021-03-21T06:29:44Z</time>
      </trkpt>
      <trkpt lat="49.08681" lon="6.68281">
        <ele>358.71</ele>
        <time>2021-03-21T06:30:10Z</time>
      </trkpt>
      <trkpt lat="49.08665" lon="6.68258">
        <ele>359.19</ele>
        <time>2021-03-21T06:30:27Z</time>
      </trkpt>
      <trkpt lat="49.08645" lon="6.68229">
        <ele>359.67</ele>
        <time>2021-03-21T06:30:48Z</time>
      </trkpt>
      <trkpt lat="49.08626" lon="6.68189">
        <ele>359.19</ele>
        <time>2021-03-21T06:31:13Z</time>
      </trkpt>
      <trkpt lat="49.08613" lon="6.68145">
        <ele>360.63</ele>
        <time>2021-03-21T06:31:37Z</time>
      </trkpt>
      <trkpt lat="49.08603" lon="6.68102">
        <ele>360.63</ele>
        <time>2021-03-21T06:32:00Z</time>
      </trkpt>
      <trkpt lat="49.08597" lon="6.68059">
        <ele>361.11</ele>
        <time>2021-03-21T06:32:22Z</time>
      </trkpt>
      <trkpt lat="49.08595" lon="6.6802">
        <ele>361.11</ele>
        <time>2021-03-21T06:32:42Z</time>
      </trkpt>
      <trkpt lat="49.08596" lon="6.67979">
        <ele>360.63</ele>
        <time>2021-03-21T06:33:03Z</time>
      </trkpt>
      <trkpt lat="49.08591" lon="6.6792">
        <ele>360.15</ele>
        <time>2021-03-21T06:33:32Z</time>
      </trkpt>
      <trkpt lat="49.08585" lon="6.67869">
        <ele>360.15</ele>
        <time>2021-03-21T06:33:58Z</time>
      </trkpt>
      <trkpt lat="49.08577" lon="6.6782">
        <ele>358.71</ele>
        <time>2021-03-21T06:34:23Z</time>
      </trkpt>
      <trkpt lat="49.0857" lon="6.67778">
        <ele>358.71</ele>
        <time>2021-03-21T06:34:45Z</time>
      </trkpt>
      <trkpt lat="49.08568" lon="6.67762">
        <ele>358.23</ele>
        <time>2021-03-21T06:34:58Z</time>
      </trkpt>
      <trkpt lat="49.08556" lon="6.67745">
        <ele>358.71</ele>
        <time>2021-03-21T06:35:13Z</time>
      </trkpt>
      <trkpt lat="49.08546" lon="6.67707">
        <ele>358.71</ele>
        <time>2021-03-21T06:35:32Z</time>
      </trkpt>
      <trkpt lat="49.08534" lon="6.67667">
        <ele>358.23</ele>
        <time>2021-03-21T06:35:54Z</time>
      </trkpt>
      <trkpt lat="49.08522" lon="6.67622">
        <ele>358.71</ele>
        <time>2021-03-21T06:36:18Z</time>
      </trkpt>
      <trkpt lat="49.08509" lon="6.6758">
        <ele>358.71</ele>
        <time>2021-03-21T06:36:41Z</time>
      </trkpt>
      <trkpt lat="49.08499" lon="6.67547">
        <ele>357.75</ele>
        <time>2021-03-21T06:36:59Z</time>
      </trkpt>
      <trkpt lat="49.08488" lon="6.67504">
        <ele>358.23</ele>
        <time>2021-03-21T06:37:21Z</time>
      </trkpt>
      <trkpt lat="49.08476" lon="6.67459">
        <ele>358.23</ele>
        <time>2021-03-21T06:37:46Z</time>
      </trkpt>
      <trkpt lat="49.08466" lon="6.67425">
        <ele>358.23</ele>
        <time>2021-03-21T06:38:05Z</time>
      </trkpt>
      <trkpt lat="49.08464" lon="6.67419">
        <ele>358.71</ele>
        <time>2021-03-21T06:38:09Z</time>
      </trkpt>
      <trkpt lat="49.08454" lon="6.67385">
        <ele>358.23</ele>
        <time>2021-03-21T06:38:30Z</time>
      </trkpt>
      <trkpt lat="49.08445" lon="6.67361">
        <ele>358.23</ele>
        <time>2021-03-21T06:38:44Z</time>
      </trkpt>
      <trkpt lat="49.08436" lon="6.67329">
        <ele>357.75</ele>
        <time>2021-03-21T06:39:03Z</time>
      </trkpt>
      <trkpt lat="49.08428" lon="6.67306">
        <ele>357.75</ele>
        <time>2021-03-21T06:39:16Z</time>
      </trkpt>
      <trkpt lat="49.08415" lon="6.67266">
        <ele>357.75</ele>
        <time>2021-03-21T06:39:38Z</time>
      </trkpt>
      <trkpt lat="49.08404" lon="6.67216">
        <ele>357.75</ele>
        <time>2021-03-21T06:40:04Z</time>
      </trkpt>
      <trkpt lat="49.08391" lon="6.67169">
        <ele>357.27</ele>
        <time>2021-03-21T06:40:29Z</time>
      </trkpt>
      <trkpt lat="49.08378" lon="6.67122">
        <ele>356.31</ele>
        <time>2021-03-21T06:40:55Z</time>
      </trkpt>
      <trkpt lat="49.08366" lon="6.6708">
        <ele>356.31</ele>
        <time>2021-03-21T06:41:18Z</time>
      </trkpt>
      <trkpt lat="49.08354" lon="6.67036">
        <ele>355.34</ele>
        <time>2021-03-21T06:41:43Z</time>
      </trkpt>
      <trkpt lat="49.08341" lon="6.66988">
        <ele>356.31</ele>
        <time>2021-03-21T06:42:09Z</time>
      </trkpt>
      <trkpt lat="49.08337" lon="6.66953">
        <ele>356.79</ele>
        <time>2021-03-21T06:42:29Z</time>
      </trkpt>
      <trkpt lat="49.08336" lon="6.6694">
        <ele>356.79</ele>
        <time>2021-03-21T06:42:36Z</time>
      </trkpt>
      <trkpt lat="49.08335" lon="6.66909">
        <ele>356.79</ele>
        <time>2021-03-21T06:42:53Z</time>
      </trkpt>
      <trkpt lat="49.08334" lon="6.66873">
        <ele>356.31</ele>
        <time>2021-03-21T06:43:11Z</time>
      </trkpt>
      <trkpt lat="49.08332" lon="6.66832">
        <ele>356.31</ele>
        <time>2021-03-21T06:43:31Z</time>
      </trkpt>
      <trkpt lat="49.08324" lon="6.6679">
        <ele>355.83</ele>
        <time>2021-03-21T06:43:51Z</time>
      </trkpt>
      <trkpt lat="49.08318" lon="6.66766">
        <ele>355.34</ele>
        <time>2021-03-21T06:44:11Z</time>
      </trkpt>
      <trkpt lat="49.08307" lon="6.66734">
        <ele>354.38</ele>
        <time>2021-03-21T06:44:27Z</time>
      </trkpt>
      <trkpt lat="49.08306" lon="6.6673">
        <ele>355.83</ele>
        <time>2021-03-21T06:44:30Z</time>
      </trkpt>
      <trkpt lat="49.08293" lon="6.66695">
        <ele>355.34</ele>
        <time>2021-03-21T06:44:50Z</time>
      </trkpt>
      <trkpt lat="49.08293" lon="6.66693">
        <ele>354.86</ele>
        <time>2021-03-21T06:44:51Z</time>
      </trkpt>
      <trkpt lat="49.08289" lon="6.66688">
        <ele>355.34</ele>
        <time>2021-03-21T06:44:55Z</time>
      </trkpt>
      <trkpt lat="49.08286" lon="6.66688">
        <ele>355.34</ele>
        <time>2021-03-21T06:44:59Z</time>
      </trkpt>
      <trkpt lat="49.08277" lon="6.6668">
        <ele>356.31</ele>
        <time>2021-03-21T06:45:11Z</time>
      </trkpt>
      <trkpt lat="49.08276" lon="6.66677">
        <ele>356.31</ele>
        <time>2021-03-21T06:45:13Z</time>
      </trkpt>
      <trkpt lat="49.08274" lon="6.66667">
        <ele>357.27</ele>
        <time>2021-03-21T06:45:19Z</time>
      </trkpt>
      <trkpt lat="49.08272" lon="6.66659">
        <ele>358.23</ele>
        <time>2021-03-21T06:45:24Z</time>
      </trkpt>
      <trkpt lat="49.08262" lon="6.66633">
        <ele>359.19</ele>
        <time>2021-03-21T06:45:41Z</time>
      </trkpt>
      <trkpt lat="49.08251" lon="6.6661">
        <ele>361.59</ele>
        <time>2021-03-21T06:45:57Z</time>
      </trkpt>
      <trkpt lat="49.08246" lon="6.66593">
        <ele>362.07</ele>
        <time>2021-03-21T06:46:08Z</time>
      </trkpt>
      <trkpt lat="49.0824" lon="6.66564">
        <ele>363.04</ele>
        <time>2021-03-21T06:46:25Z</time>
      </trkpt>
      <trkpt lat="49.08232" lon="6.66548">
        <ele>363.04</ele>
        <time>2021-03-21T06:46:37Z</time>
      </trkpt>
      <trkpt lat="49.08232" lon="6.66543">
        <ele>363.04</ele>
        <time>2021-03-21T06:46:40Z</time>
      </trkpt>
      <trkpt lat="49.08223" lon="6.66523">
        <ele>364</ele>
        <time>2021-03-21T06:46:54Z</time>
      </trkpt>
      <trkpt lat="49.08219" lon="6.66509">
        <ele>363.52</ele>
        <time>2021-03-21T06:47:08Z</time>
      </trkpt>
      <trkpt lat="49.08221" lon="6.66505">
        <ele>363.52</ele>
        <time>2021-03-21T06:47:36Z</time>
      </trkpt>
      <trkpt lat="49.08214" lon="6.66499">
        <ele>363.04</ele>
        <time>2021-03-21T06:47:47Z</time>
      </trkpt>
      <trkpt lat="49.08208" lon="6.66482">
        <ele>363.52</ele>
        <time>2021-03-21T06:47:59Z</time>
      </trkpt>
      <trkpt lat="49.08199" lon="6.66465">
        <ele>362.55</ele>
        <time>2021-03-21T06:48:09Z</time>
      </trkpt>
      <trkpt lat="49.08196" lon="6.66459">
        <ele>362.07</ele>
        <time>2021-03-21T06:48:12Z</time>
      </trkpt>
      <trkpt lat="49.08186" lon="6.66443">
        <ele>362.55</ele>
        <time>2021-03-21T06:48:25Z</time>
      </trkpt>
      <trkpt lat="49.08185" lon="6.66441">
        <ele>362.55</ele>
        <time>2021-03-21T06:48:26Z</time>
      </trkpt>
      <trkpt lat="49.08184" lon="6.6644">
        <ele>362.55</ele>
        <time>2021-03-21T06:48:27Z</time>
      </trkpt>
      <trkpt lat="49.08175" lon="6.66423">
        <ele>361.11</ele>
        <time>2021-03-21T06:48:41Z</time>
      </trkpt>
      <trkpt lat="49.08164" lon="6.66405">
        <ele>361.11</ele>
        <time>2021-03-21T06:48:56Z</time>
      </trkpt>
      <trkpt lat="49.08158" lon="6.66397">
        <ele>360.15</ele>
        <time>2021-03-21T06:49:07Z</time>
      </trkpt>
      <trkpt lat="49.08151" lon="6.66389">
        <ele>360.15</ele>
        <time>2021-03-21T06:49:19Z</time>
      </trkpt>
      <trkpt lat="49.08146" lon="6.66385">
        <ele>361.11</ele>
        <time>2021-03-21T06:49:26Z</time>
      </trkpt>
      <trkpt lat="49.08143" lon="6.66376">
        <ele>360.15</ele>
        <time>2021-03-21T06:49:39Z</time>
      </trkpt>
      <trkpt lat="49.08142" lon="6.66373">
        <ele>360.15</ele>
        <time>2021-03-21T06:49:42Z</time>
      </trkpt>
      <trkpt lat="49.08138" lon="6.66369">
        <ele>360.15</ele>
        <time>2021-03-21T06:49:55Z</time>
      </trkpt>
      <trkpt lat="49.08136" lon="6.66367">
        <ele>359.67</ele>
        <time>2021-03-21T06:50:00Z</time>
      </trkpt>
      <trkpt lat="49.08126" lon="6.66356">
        <ele>359.19</ele>
        <time>2021-03-21T06:50:12Z</time>
      </trkpt>
      <trkpt lat="49.08121" lon="6.66342">
        <ele>358.23</ele>
        <time>2021-03-21T06:50:24Z</time>
      </trkpt>
      <trkpt lat="49.08111" lon="6.66324">
        <ele>357.27</ele>
        <time>2021-03-21T06:50:38Z</time>
      </trkpt>
      <trkpt lat="49.08105" lon="6.66321">
        <ele>357.27</ele>
        <time>2021-03-21T06:50:44Z</time>
      </trkpt>
      <trkpt lat="49.08104" lon="6.66321">
        <ele>356.79</ele>
        <time>2021-03-21T06:50:45Z</time>
      </trkpt>
      <trkpt lat="49.08102" lon="6.66321">
        <ele>357.27</ele>
        <time>2021-03-21T06:50:46Z</time>
      </trkpt>
      <trkpt lat="49.08101" lon="6.66321">
        <ele>357.27</ele>
        <time>2021-03-21T06:50:47Z</time>
      </trkpt>
      <trkpt lat="49.081" lon="6.6632">
        <ele>356.79</ele>
        <time>2021-03-21T06:50:48Z</time>
      </trkpt>
      <trkpt lat="49.08094" lon="6.66314">
        <ele>357.27</ele>
        <time>2021-03-21T06:50:59Z</time>
      </trkpt>
      <trkpt lat="49.08092" lon="6.66309">
        <ele>356.31</ele>
        <time>2021-03-21T06:51:05Z</time>
      </trkpt>
      <trkpt lat="49.08077" lon="6.66287">
        <ele>355.34</ele>
        <time>2021-03-21T06:51:21Z</time>
      </trkpt>
      <trkpt lat="49.08076" lon="6.66286">
        <ele>354.86</ele>
        <time>2021-03-21T06:51:22Z</time>
      </trkpt>
      <trkpt lat="49.08073" lon="6.66282">
        <ele>354.38</ele>
        <time>2021-03-21T06:51:25Z</time>
      </trkpt>
      <trkpt lat="49.08072" lon="6.6628">
        <ele>354.38</ele>
        <time>2021-03-21T06:51:26Z</time>
      </trkpt>
      <trkpt lat="49.08059" lon="6.66259">
        <ele>352.94</ele>
        <time>2021-03-21T06:51:41Z</time>
      </trkpt>
      <trkpt lat="49.08044" lon="6.66239">
        <ele>351.98</ele>
        <time>2021-03-21T06:51:56Z</time>
      </trkpt>
      <trkpt lat="49.08031" lon="6.66216">
        <ele>349.58</ele>
        <time>2021-03-21T06:52:12Z</time>
      </trkpt>
      <trkpt lat="49.08026" lon="6.66205">
        <ele>349.58</ele>
        <time>2021-03-21T06:52:26Z</time>
      </trkpt>
      <trkpt lat="49.08014" lon="6.66186">
        <ele>348.62</ele>
        <time>2021-03-21T06:52:41Z</time>
      </trkpt>
      <trkpt lat="49.07995" lon="6.66157">
        <ele>347.17</ele>
        <time>2021-03-21T06:53:01Z</time>
      </trkpt>
      <trkpt lat="49.07987" lon="6.66148">
        <ele>346.21</ele>
        <time>2021-03-21T06:53:09Z</time>
      </trkpt>
      <trkpt lat="49.07986" lon="6.66147">
        <ele>346.69</ele>
        <time>2021-03-21T06:53:10Z</time>
      </trkpt>
      <trkpt lat="49.0797" lon="6.66132">
        <ele>344.77</ele>
        <time>2021-03-21T06:53:27Z</time>
      </trkpt>
      <trkpt lat="49.07965" lon="6.66122">
        <ele>344.29</ele>
        <time>2021-03-21T06:53:39Z</time>
      </trkpt>
      <trkpt lat="49.07961" lon="6.66112">
        <ele>342.85</ele>
        <time>2021-03-21T06:53:47Z</time>
      </trkpt>
      <trkpt lat="49.07964" lon="6.66107">
        <ele>341.89</ele>
        <time>2021-03-21T06:53:51Z</time>
      </trkpt>
      <trkpt lat="49.07969" lon="6.66105">
        <ele>341.41</ele>
        <time>2021-03-21T06:54:05Z</time>
      </trkpt>
      <trkpt lat="49.07973" lon="6.66103">
        <ele>341.41</ele>
        <time>2021-03-21T06:54:10Z</time>
      </trkpt>
      <trkpt lat="49.07972" lon="6.66097">
        <ele>341.89</ele>
        <time>2021-03-21T06:54:14Z</time>
      </trkpt>
      <trkpt lat="49.07967" lon="6.66087">
        <ele>342.37</ele>
        <time>2021-03-21T06:54:21Z</time>
      </trkpt>
      <trkpt lat="49.07965" lon="6.6608">
        <ele>341.89</ele>
        <time>2021-03-21T06:54:26Z</time>
      </trkpt>
      <trkpt lat="49.07954" lon="6.66064">
        <ele>341.41</ele>
        <time>2021-03-21T06:54:41Z</time>
      </trkpt>
      <trkpt lat="49.07953" lon="6.66062">
        <ele>340.92</ele>
        <time>2021-03-21T06:54:42Z</time>
      </trkpt>
      <trkpt lat="49.07953" lon="6.66061">
        <ele>341.41</ele>
        <time>2021-03-21T06:54:43Z</time>
      </trkpt>
      <trkpt lat="49.07931" lon="6.66027">
        <ele>340.44</ele>
        <time>2021-03-21T06:55:06Z</time>
      </trkpt>
      <trkpt lat="49.07909" lon="6.66">
        <ele>339.96</ele>
        <time>2021-03-21T06:55:27Z</time>
      </trkpt>
      <trkpt lat="49.07891" lon="6.65971">
        <ele>339</ele>
        <time>2021-03-21T06:55:46Z</time>
      </trkpt>
      <trkpt lat="49.07876" lon="6.65949">
        <ele>339</ele>
        <time>2021-03-21T06:56:06Z</time>
      </trkpt>
      <trkpt lat="49.0787" lon="6.65942">
        <ele>338.52</ele>
        <time>2021-03-21T06:56:18Z</time>
      </trkpt>
      <trkpt lat="49.0786" lon="6.65926">
        <ele>338.04</ele>
        <time>2021-03-21T06:56:36Z</time>
      </trkpt>
      <trkpt lat="49.07857" lon="6.6592">
        <ele>337.56</ele>
        <time>2021-03-21T06:56:50Z</time>
      </trkpt>
      <trkpt lat="49.07848" lon="6.65907">
        <ele>338.52</ele>
        <time>2021-03-21T06:57:05Z</time>
      </trkpt>
      <trkpt lat="49.07831" lon="6.65883">
        <ele>338.04</ele>
        <time>2021-03-21T06:57:22Z</time>
      </trkpt>
      <trkpt lat="49.07823" lon="6.65868">
        <ele>337.08</ele>
        <time>2021-03-21T06:57:36Z</time>
      </trkpt>
      <trkpt lat="49.07817" lon="6.65861">
        <ele>336.6</ele>
        <time>2021-03-21T06:57:42Z</time>
      </trkpt>
      <trkpt lat="49.07816" lon="6.6586">
        <ele>337.56</ele>
        <time>2021-03-21T06:57:43Z</time>
      </trkpt>
      <trkpt lat="49.07815" lon="6.65859">
        <ele>337.08</ele>
        <time>2021-03-21T06:57:44Z</time>
      </trkpt>
      <trkpt lat="49.07807" lon="6.65844">
        <ele>337.56</ele>
        <time>2021-03-21T06:57:55Z</time>
      </trkpt>
      <trkpt lat="49.07787" lon="6.65818">
        <ele>336.12</ele>
        <time>2021-03-21T06:58:14Z</time>
      </trkpt>
      <trkpt lat="49.07767" lon="6.65788">
        <ele>336.12</ele>
        <time>2021-03-21T06:58:35Z</time>
      </trkpt>
      <trkpt lat="49.07744" lon="6.65752">
        <ele>335.64</ele>
        <time>2021-03-21T06:58:58Z</time>
      </trkpt>
      <trkpt lat="49.07722" lon="6.65721">
        <ele>335.16</ele>
        <time>2021-03-21T06:59:20Z</time>
      </trkpt>
      <trkpt lat="49.07705" lon="6.65704">
        <ele>334.68</ele>
        <time>2021-03-21T06:59:35Z</time>
      </trkpt>
      <trkpt lat="49.07683" lon="6.65684">
        <ele>334.2</ele>
        <time>2021-03-21T06:59:54Z</time>
      </trkpt>
      <trkpt lat="49.07666" lon="6.65671">
        <ele>333.23</ele>
        <time>2021-03-21T07:00:09Z</time>
      </trkpt>
      <trkpt lat="49.0765" lon="6.65662">
        <ele>333.23</ele>
        <time>2021-03-21T07:00:26Z</time>
      </trkpt>
      <trkpt lat="49.07634" lon="6.6565">
        <ele>333.23</ele>
        <time>2021-03-21T07:00:44Z</time>
      </trkpt>
      <trkpt lat="49.07616" lon="6.65641">
        <ele>332.75</ele>
        <time>2021-03-21T07:01:00Z</time>
      </trkpt>
      <trkpt lat="49.07592" lon="6.65633">
        <ele>331.79</ele>
        <time>2021-03-21T07:01:19Z</time>
      </trkpt>
      <trkpt lat="49.07565" lon="6.65626">
        <ele>331.31</ele>
        <time>2021-03-21T07:01:38Z</time>
      </trkpt>
      <trkpt lat="49.07544" lon="6.65619">
        <ele>330.83</ele>
        <time>2021-03-21T07:01:55Z</time>
      </trkpt>
      <trkpt lat="49.07516" lon="6.65615">
        <ele>329.39</ele>
        <time>2021-03-21T07:02:15Z</time>
      </trkpt>
      <trkpt lat="49.07496" lon="6.65615">
        <ele>329.39</ele>
        <time>2021-03-21T07:02:30Z</time>
      </trkpt>
      <trkpt lat="49.07469" lon="6.65616">
        <ele>327.95</ele>
        <time>2021-03-21T07:02:49Z</time>
      </trkpt>
      <trkpt lat="49.07438" lon="6.6562">
        <ele>326.99</ele>
        <time>2021-03-21T07:03:10Z</time>
      </trkpt>
      <trkpt lat="49.07408" lon="6.65623">
        <ele>326.99</ele>
        <time>2021-03-21T07:03:31Z</time>
      </trkpt>
      <trkpt lat="49.07384" lon="6.65627">
        <ele>325.54</ele>
        <time>2021-03-21T07:03:50Z</time>
      </trkpt>
      <trkpt lat="49.07362" lon="6.65629">
        <ele>326.02</ele>
        <time>2021-03-21T07:04:07Z</time>
      </trkpt>
      <trkpt lat="49.07338" lon="6.65632">
        <ele>325.06</ele>
        <time>2021-03-21T07:04:26Z</time>
      </trkpt>
      <trkpt lat="49.07331" lon="6.65635">
        <ele>325.06</ele>
        <time>2021-03-21T07:04:45Z</time>
      </trkpt>
      <trkpt lat="49.0732" lon="6.65636">
        <ele>325.06</ele>
        <time>2021-03-21T07:05:10Z</time>
      </trkpt>
      <trkpt lat="49.07306" lon="6.65638">
        <ele>324.58</ele>
        <time>2021-03-21T07:05:24Z</time>
      </trkpt>
      <trkpt lat="49.07279" lon="6.65642">
        <ele>324.58</ele>
        <time>2021-03-21T07:05:44Z</time>
      </trkpt>
      <trkpt lat="49.07253" lon="6.65645">
        <ele>324.1</ele>
        <time>2021-03-21T07:06:04Z</time>
      </trkpt>
      <trkpt lat="49.07232" lon="6.65648">
        <ele>324.1</ele>
        <time>2021-03-21T07:06:21Z</time>
      </trkpt>
      <trkpt lat="49.07217" lon="6.65647">
        <ele>323.62</ele>
        <time>2021-03-21T07:06:35Z</time>
      </trkpt>
      <trkpt lat="49.07194" lon="6.65645">
        <ele>322.66</ele>
        <time>2021-03-21T07:06:50Z</time>
      </trkpt>
      <trkpt lat="49.07165" lon="6.65636">
        <ele>323.14</ele>
        <time>2021-03-21T07:07:09Z</time>
      </trkpt>
      <trkpt lat="49.07144" lon="6.65624">
        <ele>321.7</ele>
        <time>2021-03-21T07:07:27Z</time>
      </trkpt>
      <trkpt lat="49.07121" lon="6.65615">
        <ele>321.7</ele>
        <time>2021-03-21T07:07:43Z</time>
      </trkpt>
      <trkpt lat="49.07096" lon="6.65595">
        <ele>320.74</ele>
        <time>2021-03-21T07:08:02Z</time>
      </trkpt>
      <trkpt lat="49.07077" lon="6.65571">
        <ele>321.22</ele>
        <time>2021-03-21T07:08:21Z</time>
      </trkpt>
      <trkpt lat="49.07082" lon="6.65544">
        <ele>322.18</ele>
        <time>2021-03-21T07:08:35Z</time>
      </trkpt>
      <trkpt lat="49.07084" lon="6.65541">
        <ele>322.66</ele>
        <time>2021-03-21T07:08:37Z</time>
      </trkpt>
      <trkpt lat="49.07086" lon="6.6553">
        <ele>323.62</ele>
        <time>2021-03-21T07:08:43Z</time>
      </trkpt>
      <trkpt lat="49.07091" lon="6.65498">
        <ele>326.02</ele>
        <time>2021-03-21T07:09:00Z</time>
      </trkpt>
      <trkpt lat="49.0709" lon="6.6547">
        <ele>328.43</ele>
        <time>2021-03-21T07:09:16Z</time>
      </trkpt>
      <trkpt lat="49.07084" lon="6.65437">
        <ele>328.43</ele>
        <time>2021-03-21T07:09:35Z</time>
      </trkpt>
      <trkpt lat="49.07079" lon="6.65405">
        <ele>327.47</ele>
        <time>2021-03-21T07:09:52Z</time>
      </trkpt>
      <trkpt lat="49.0707" lon="6.65364">
        <ele>327.95</ele>
        <time>2021-03-21T07:10:12Z</time>
      </trkpt>
      <trkpt lat="49.07065" lon="6.6533">
        <ele>327.47</ele>
        <time>2021-03-21T07:10:29Z</time>
      </trkpt>
      <trkpt lat="49.07059" lon="6.65299">
        <ele>327.47</ele>
        <time>2021-03-21T07:10:46Z</time>
      </trkpt>
      <trkpt lat="49.07052" lon="6.65266">
        <ele>326.5</ele>
        <time>2021-03-21T07:11:03Z</time>
      </trkpt>
      <trkpt lat="49.0705" lon="6.6526">
        <ele>326.5</ele>
        <time>2021-03-21T07:11:06Z</time>
      </trkpt>
      <trkpt lat="49.07044" lon="6.65231">
        <ele>326.5</ele>
        <time>2021-03-21T07:11:22Z</time>
      </trkpt>
      <trkpt lat="49.07033" lon="6.65177">
        <ele>325.54</ele>
        <time>2021-03-21T07:11:44Z</time>
      </trkpt>
      <trkpt lat="49.07025" lon="6.65148">
        <ele>324.58</ele>
        <time>2021-03-21T07:11:59Z</time>
      </trkpt>
      <trkpt lat="49.07015" lon="6.65112">
        <ele>324.58</ele>
        <time>2021-03-21T07:12:16Z</time>
      </trkpt>
      <trkpt lat="49.07009" lon="6.65078">
        <ele>323.62</ele>
        <time>2021-03-21T07:12:34Z</time>
      </trkpt>
      <trkpt lat="49.06999" lon="6.65044">
        <ele>322.66</ele>
        <time>2021-03-21T07:12:52Z</time>
      </trkpt>
      <trkpt lat="49.06991" lon="6.65009">
        <ele>321.7</ele>
        <time>2021-03-21T07:13:09Z</time>
      </trkpt>
      <trkpt lat="49.06988" lon="6.64992">
        <ele>321.22</ele>
        <time>2021-03-21T07:13:16Z</time>
      </trkpt>
      <trkpt lat="49.06984" lon="6.64965">
        <ele>319.78</ele>
        <time>2021-03-21T07:13:32Z</time>
      </trkpt>
      <trkpt lat="49.06984" lon="6.64927">
        <ele>318.81</ele>
        <time>2021-03-21T07:13:49Z</time>
      </trkpt>
      <trkpt lat="49.06985" lon="6.64886">
        <ele>317.37</ele>
        <time>2021-03-21T07:14:06Z</time>
      </trkpt>
      <trkpt lat="49.06986" lon="6.64848">
        <ele>316.89</ele>
        <time>2021-03-21T07:14:23Z</time>
      </trkpt>
      <trkpt lat="49.06991" lon="6.64815">
        <ele>315.93</ele>
        <time>2021-03-21T07:14:40Z</time>
      </trkpt>
      <trkpt lat="49.06994" lon="6.64778">
        <ele>315.45</ele>
        <time>2021-03-21T07:14:57Z</time>
      </trkpt>
      <trkpt lat="49.07003" lon="6.64742">
        <ele>314.49</ele>
        <time>2021-03-21T07:15:14Z</time>
      </trkpt>
      <trkpt lat="49.07014" lon="6.64713">
        <ele>314.49</ele>
        <time>2021-03-21T07:15:31Z</time>
      </trkpt>
      <trkpt lat="49.07028" lon="6.64682">
        <ele>313.53</ele>
        <time>2021-03-21T07:15:49Z</time>
      </trkpt>
      <trkpt lat="49.07047" lon="6.64644">
        <ele>313.53</ele>
        <time>2021-03-21T07:16:12Z</time>
      </trkpt>
      <trkpt lat="49.07064" lon="6.64612">
        <ele>313.53</ele>
        <time>2021-03-21T07:16:32Z</time>
      </trkpt>
      <trkpt lat="49.07081" lon="6.64576">
        <ele>311.12</ele>
        <time>2021-03-21T07:16:53Z</time>
      </trkpt>
      <trkpt lat="49.07096" lon="6.64545">
        <ele>310.16</ele>
        <time>2021-03-21T07:17:12Z</time>
      </trkpt>
      <trkpt lat="49.0711" lon="6.64525">
        <ele>308.24</ele>
        <time>2021-03-21T07:17:27Z</time>
      </trkpt>
      <trkpt lat="49.07124" lon="6.64505">
        <ele>306.32</ele>
        <time>2021-03-21T07:17:42Z</time>
      </trkpt>
      <trkpt lat="49.07132" lon="6.64481">
        <ele>304.88</ele>
        <time>2021-03-21T07:17:57Z</time>
      </trkpt>
      <trkpt lat="49.07131" lon="6.64479">
        <ele>304.39</ele>
        <time>2021-03-21T07:17:58Z</time>
      </trkpt>
      <trkpt lat="49.07131" lon="6.64478">
        <ele>303.91</ele>
        <time>2021-03-21T07:17:59Z</time>
      </trkpt>
      <trkpt lat="49.0713" lon="6.64477">
        <ele>304.39</ele>
        <time>2021-03-21T07:18:00Z</time>
      </trkpt>
      <trkpt lat="49.07129" lon="6.64476">
        <ele>304.39</ele>
        <time>2021-03-21T07:18:01Z</time>
      </trkpt>
      <trkpt lat="49.07128" lon="6.64475">
        <ele>304.39</ele>
        <time>2021-03-21T07:18:02Z</time>
      </trkpt>
      <trkpt lat="49.07106" lon="6.64474">
        <ele>302.95</ele>
        <time>2021-03-21T07:18:22Z</time>
      </trkpt>
      <trkpt lat="49.07092" lon="6.64477">
        <ele>301.51</ele>
        <time>2021-03-21T07:18:36Z</time>
      </trkpt>
      <trkpt lat="49.07072" lon="6.64483">
        <ele>299.59</ele>
        <time>2021-03-21T07:18:52Z</time>
      </trkpt>
      <trkpt lat="49.07048" lon="6.64492">
        <ele>298.63</ele>
        <time>2021-03-21T07:19:09Z</time>
      </trkpt>
      <trkpt lat="49.07029" lon="6.64502">
        <ele>296.22</ele>
        <time>2021-03-21T07:19:25Z</time>
      </trkpt>
      <trkpt lat="49.07008" lon="6.64509">
        <ele>295.26</ele>
        <time>2021-03-21T07:19:41Z</time>
      </trkpt>
      <trkpt lat="49.06988" lon="6.64504">
        <ele>295.26</ele>
        <time>2021-03-21T07:19:55Z</time>
      </trkpt>
      <trkpt lat="49.06969" lon="6.64498">
        <ele>295.26</ele>
        <time>2021-03-21T07:20:10Z</time>
      </trkpt>
      <trkpt lat="49.06946" lon="6.64489">
        <ele>295.26</ele>
        <time>2021-03-21T07:20:27Z</time>
      </trkpt>
      <trkpt lat="49.06929" lon="6.64476">
        <ele>297.18</ele>
        <time>2021-03-21T07:20:43Z</time>
      </trkpt>
      <trkpt lat="49.0691" lon="6.64475">
        <ele>296.7</ele>
        <time>2021-03-21T07:20:55Z</time>
      </trkpt>
      <trkpt lat="49.06908" lon="6.64475">
        <ele>297.67</ele>
        <time>2021-03-21T07:20:56Z</time>
      </trkpt>
      <trkpt lat="49.06907" lon="6.64475">
        <ele>297.18</ele>
        <time>2021-03-21T07:20:57Z</time>
      </trkpt>
      <trkpt lat="49.0688" lon="6.64474">
        <ele>299.59</ele>
        <time>2021-03-21T07:21:17Z</time>
      </trkpt>
      <trkpt lat="49.06878" lon="6.64474">
        <ele>299.59</ele>
        <time>2021-03-21T07:21:18Z</time>
      </trkpt>
      <trkpt lat="49.06835" lon="6.64474">
        <ele>301.99</ele>
        <time>2021-03-21T07:21:45Z</time>
      </trkpt>
      <trkpt lat="49.06809" lon="6.64469">
        <ele>302.95</ele>
        <time>2021-03-21T07:22:04Z</time>
      </trkpt>
      <trkpt lat="49.06786" lon="6.64467">
        <ele>304.88</ele>
        <time>2021-03-21T07:22:24Z</time>
      </trkpt>
      <trkpt lat="49.06774" lon="6.64463">
        <ele>305.36</ele>
        <time>2021-03-21T07:22:40Z</time>
      </trkpt>
      <trkpt lat="49.06743" lon="6.64451">
        <ele>307.28</ele>
        <time>2021-03-21T07:23:05Z</time>
      </trkpt>
      <trkpt lat="49.06715" lon="6.64433">
        <ele>310.64</ele>
        <time>2021-03-21T07:23:29Z</time>
      </trkpt>
      <trkpt lat="49.06694" lon="6.64418">
        <ele>314.01</ele>
        <time>2021-03-21T07:23:48Z</time>
      </trkpt>
      <trkpt lat="49.06669" lon="6.644">
        <ele>315.93</ele>
        <time>2021-03-21T07:24:09Z</time>
      </trkpt>
      <trkpt lat="49.06642" lon="6.64379">
        <ele>319.3</ele>
        <time>2021-03-21T07:24:32Z</time>
      </trkpt>
      <trkpt lat="49.06621" lon="6.64356">
        <ele>320.26</ele>
        <time>2021-03-21T07:24:53Z</time>
      </trkpt>
      <trkpt lat="49.06605" lon="6.64351">
        <ele>321.22</ele>
        <time>2021-03-21T07:25:07Z</time>
      </trkpt>
      <trkpt lat="49.06604" lon="6.64352">
        <ele>321.22</ele>
        <time>2021-03-21T07:25:08Z</time>
      </trkpt>
      <trkpt lat="49.06585" lon="6.64363">
        <ele>321.7</ele>
        <time>2021-03-21T07:25:26Z</time>
      </trkpt>
      <trkpt lat="49.06563" lon="6.64381">
        <ele>321.7</ele>
        <time>2021-03-21T07:25:45Z</time>
      </trkpt>
      <trkpt lat="49.0654" lon="6.64404">
        <ele>322.18</ele>
        <time>2021-03-21T07:26:05Z</time>
      </trkpt>
      <trkpt lat="49.06516" lon="6.6443">
        <ele>322.66</ele>
        <time>2021-03-21T07:26:25Z</time>
      </trkpt>
      <trkpt lat="49.06492" lon="6.64454">
        <ele>323.14</ele>
        <time>2021-03-21T07:26:45Z</time>
      </trkpt>
      <trkpt lat="49.06468" lon="6.64482">
        <ele>322.66</ele>
        <time>2021-03-21T07:27:07Z</time>
      </trkpt>
      <trkpt lat="49.0645" lon="6.64519">
        <ele>323.14</ele>
        <time>2021-03-21T07:27:29Z</time>
      </trkpt>
      <trkpt lat="49.06431" lon="6.64546">
        <ele>322.66</ele>
        <time>2021-03-21T07:27:48Z</time>
      </trkpt>
      <trkpt lat="49.06411" lon="6.64577">
        <ele>323.14</ele>
        <time>2021-03-21T07:28:09Z</time>
      </trkpt>
      <trkpt lat="49.06393" lon="6.64611">
        <ele>322.18</ele>
        <time>2021-03-21T07:28:31Z</time>
      </trkpt>
      <trkpt lat="49.06375" lon="6.64641">
        <ele>322.18</ele>
        <time>2021-03-21T07:28:50Z</time>
      </trkpt>
      <trkpt lat="49.06358" lon="6.64668">
        <ele>321.22</ele>
        <time>2021-03-21T07:29:08Z</time>
      </trkpt>
      <trkpt lat="49.06334" lon="6.64706">
        <ele>320.26</ele>
        <time>2021-03-21T07:29:33Z</time>
      </trkpt>
      <trkpt lat="49.06311" lon="6.6474">
        <ele>318.81</ele>
        <time>2021-03-21T07:29:57Z</time>
      </trkpt>
      <trkpt lat="49.06292" lon="6.64773">
        <ele>317.85</ele>
        <time>2021-03-21T07:30:19Z</time>
      </trkpt>
      <trkpt lat="49.06283" lon="6.6479">
        <ele>316.89</ele>
        <time>2021-03-21T07:30:33Z</time>
      </trkpt>
      <trkpt lat="49.06282" lon="6.64791">
        <ele>316.89</ele>
        <time>2021-03-21T07:30:36Z</time>
      </trkpt>
      <trkpt lat="49.06275" lon="6.64785">
        <ele>315.93</ele>
        <time>2021-03-21T07:30:51Z</time>
      </trkpt>
      <trkpt lat="49.06274" lon="6.64785">
        <ele>316.89</ele>
        <time>2021-03-21T07:31:16Z</time>
      </trkpt>
      <trkpt lat="49.06273" lon="6.64783">
        <ele>316.89</ele>
        <time>2021-03-21T07:31:29Z</time>
      </trkpt>
      <trkpt lat="49.06275" lon="6.64796">
        <ele>316.41</ele>
        <time>2021-03-21T07:31:45Z</time>
      </trkpt>
      <trkpt lat="49.06273" lon="6.64829">
        <ele>314.97</ele>
        <time>2021-03-21T07:32:03Z</time>
      </trkpt>
      <trkpt lat="49.06261" lon="6.64858">
        <ele>313.05</ele>
        <time>2021-03-21T07:32:23Z</time>
      </trkpt>
      <trkpt lat="49.06248" lon="6.64899">
        <ele>311.6</ele>
        <time>2021-03-21T07:32:46Z</time>
      </trkpt>
      <trkpt lat="49.06241" lon="6.64919">
        <ele>309.68</ele>
        <time>2021-03-21T07:33:06Z</time>
      </trkpt>
      <trkpt lat="49.06235" lon="6.64931">
        <ele>310.16</ele>
        <time>2021-03-21T07:33:20Z</time>
      </trkpt>
      <trkpt lat="49.06211" lon="6.64965">
        <ele>308.24</ele>
        <time>2021-03-21T07:33:44Z</time>
      </trkpt>
      <trkpt lat="49.0621" lon="6.64966">
        <ele>308.24</ele>
        <time>2021-03-21T07:33:58Z</time>
      </trkpt>
      <trkpt lat="49.06196" lon="6.64993">
        <ele>307.28</ele>
        <time>2021-03-21T07:34:16Z</time>
      </trkpt>
      <trkpt lat="49.06171" lon="6.65026">
        <ele>306.8</ele>
        <time>2021-03-21T07:34:41Z</time>
      </trkpt>
      <trkpt lat="49.06147" lon="6.65055">
        <ele>304.88</ele>
        <time>2021-03-21T07:35:06Z</time>
      </trkpt>
      <trkpt lat="49.06128" lon="6.65077">
        <ele>303.43</ele>
        <time>2021-03-21T07:35:25Z</time>
      </trkpt>
      <trkpt lat="49.06109" lon="6.65103">
        <ele>301.51</ele>
        <time>2021-03-21T07:35:45Z</time>
      </trkpt>
      <trkpt lat="49.06084" lon="6.65134">
        <ele>300.55</ele>
        <time>2021-03-21T07:36:08Z</time>
      </trkpt>
      <trkpt lat="49.06061" lon="6.65167">
        <ele>298.15</ele>
        <time>2021-03-21T07:36:31Z</time>
      </trkpt>
      <trkpt lat="49.06044" lon="6.65195">
        <ele>297.18</ele>
        <time>2021-03-21T07:36:51Z</time>
      </trkpt>
      <trkpt lat="49.06023" lon="6.65235">
        <ele>295.74</ele>
        <time>2021-03-21T07:37:18Z</time>
      </trkpt>
      <trkpt lat="49.06023" lon="6.65238">
        <ele>295.26</ele>
        <time>2021-03-21T07:37:32Z</time>
      </trkpt>
      <trkpt lat="49.06012" lon="6.65259">
        <ele>294.3</ele>
        <time>2021-03-21T07:37:47Z</time>
      </trkpt>
      <trkpt lat="49.05989" lon="6.65305">
        <ele>292.38</ele>
        <time>2021-03-21T07:38:12Z</time>
      </trkpt>
      <trkpt lat="49.05974" lon="6.65341">
        <ele>290.46</ele>
        <time>2021-03-21T07:38:32Z</time>
      </trkpt>
      <trkpt lat="49.05955" lon="6.65389">
        <ele>289.49</ele>
        <time>2021-03-21T07:38:58Z</time>
      </trkpt>
      <trkpt lat="49.05938" lon="6.6544">
        <ele>287.09</ele>
        <time>2021-03-21T07:39:25Z</time>
      </trkpt>
      <trkpt lat="49.05921" lon="6.65491">
        <ele>285.17</ele>
        <time>2021-03-21T07:39:52Z</time>
      </trkpt>
      <trkpt lat="49.05905" lon="6.65537">
        <ele>283.25</ele>
        <time>2021-03-21T07:40:17Z</time>
      </trkpt>
      <trkpt lat="49.05899" lon="6.65553">
        <ele>282.28</ele>
        <time>2021-03-21T07:40:26Z</time>
      </trkpt>
      <trkpt lat="49.05883" lon="6.65579">
        <ele>281.32</ele>
        <time>2021-03-21T07:40:43Z</time>
      </trkpt>
      <trkpt lat="49.05869" lon="6.65624">
        <ele>279.88</ele>
        <time>2021-03-21T07:41:07Z</time>
      </trkpt>
      <trkpt lat="49.0586" lon="6.65669">
        <ele>278.44</ele>
        <time>2021-03-21T07:41:29Z</time>
      </trkpt>
      <trkpt lat="49.05855" lon="6.65714">
        <ele>277.96</ele>
        <time>2021-03-21T07:41:52Z</time>
      </trkpt>
      <trkpt lat="49.05848" lon="6.65767">
        <ele>276.04</ele>
        <time>2021-03-21T07:42:17Z</time>
      </trkpt>
      <trkpt lat="49.05835" lon="6.65815">
        <ele>275.07</ele>
        <time>2021-03-21T07:42:42Z</time>
      </trkpt>
      <trkpt lat="49.05814" lon="6.65857">
        <ele>274.11</ele>
        <time>2021-03-21T07:43:07Z</time>
      </trkpt>
      <trkpt lat="49.05794" lon="6.65894">
        <ele>274.11</ele>
        <time>2021-03-21T07:43:30Z</time>
      </trkpt>
      <trkpt lat="49.05775" lon="6.65927">
        <ele>274.11</ele>
        <time>2021-03-21T07:43:53Z</time>
      </trkpt>
      <trkpt lat="49.05754" lon="6.65962">
        <ele>273.63</ele>
        <time>2021-03-21T07:44:15Z</time>
      </trkpt>
      <trkpt lat="49.05737" lon="6.65998">
        <ele>272.67</ele>
        <time>2021-03-21T07:44:36Z</time>
      </trkpt>
      <trkpt lat="49.05756" lon="6.66029">
        <ele>271.23</ele>
        <time>2021-03-21T07:44:56Z</time>
      </trkpt>
      <trkpt lat="49.05773" lon="6.66048">
        <ele>267.86</ele>
        <time>2021-03-21T07:45:10Z</time>
      </trkpt>
      <trkpt lat="49.05793" lon="6.66069">
        <ele>264.5</ele>
        <time>2021-03-21T07:45:30Z</time>
      </trkpt>
      <trkpt lat="49.05816" lon="6.66086">
        <ele>262.1</ele>
        <time>2021-03-21T07:45:51Z</time>
      </trkpt>
      <trkpt lat="49.05823" lon="6.66112">
        <ele>260.65</ele>
        <time>2021-03-21T07:46:06Z</time>
      </trkpt>
      <trkpt lat="49.05841" lon="6.66122">
        <ele>261.62</ele>
        <time>2021-03-21T07:46:23Z</time>
      </trkpt>
      <trkpt lat="49.05842" lon="6.66122">
        <ele>262.1</ele>
        <time>2021-03-21T07:46:24Z</time>
      </trkpt>
      <trkpt lat="49.0585" lon="6.6612">
        <ele>262.1</ele>
        <time>2021-03-21T07:46:30Z</time>
      </trkpt>
      <trkpt lat="49.0587" lon="6.66125">
        <ele>263.54</ele>
        <time>2021-03-21T07:46:46Z</time>
      </trkpt>
      <trkpt lat="49.05895" lon="6.66135">
        <ele>263.06</ele>
        <time>2021-03-21T07:47:04Z</time>
      </trkpt>
      <trkpt lat="49.05915" lon="6.66158">
        <ele>264.02</ele>
        <time>2021-03-21T07:47:23Z</time>
      </trkpt>
      <trkpt lat="49.05933" lon="6.66187">
        <ele>264.98</ele>
        <time>2021-03-21T07:47:41Z</time>
      </trkpt>
      <trkpt lat="49.05951" lon="6.66213">
        <ele>265.94</ele>
        <time>2021-03-21T07:48:00Z</time>
      </trkpt>
      <trkpt lat="49.05966" lon="6.66223">
        <ele>265.46</ele>
        <time>2021-03-21T07:48:14Z</time>
      </trkpt>
      <trkpt lat="49.05987" lon="6.66176">
        <ele>266.42</ele>
        <time>2021-03-21T07:48:40Z</time>
      </trkpt>
      <trkpt lat="49.06" lon="6.66133">
        <ele>267.86</ele>
        <time>2021-03-21T07:49:03Z</time>
      </trkpt>
      <trkpt lat="49.06013" lon="6.66095">
        <ele>268.83</ele>
        <time>2021-03-21T07:49:25Z</time>
      </trkpt>
      <trkpt lat="49.06029" lon="6.66051">
        <ele>269.31</ele>
        <time>2021-03-21T07:49:49Z</time>
      </trkpt>
      <trkpt lat="49.06044" lon="6.66023">
        <ele>270.27</ele>
        <time>2021-03-21T07:50:07Z</time>
      </trkpt>
      <trkpt lat="49.06064" lon="6.65977">
        <ele>271.23</ele>
        <time>2021-03-21T07:50:32Z</time>
      </trkpt>
      <trkpt lat="49.06082" lon="6.65937">
        <ele>273.15</ele>
        <time>2021-03-21T07:50:55Z</time>
      </trkpt>
      <trkpt lat="49.06099" lon="6.65895">
        <ele>274.59</ele>
        <time>2021-03-21T07:51:19Z</time>
      </trkpt>
      <trkpt lat="49.06105" lon="6.65882">
        <ele>275.07</ele>
        <time>2021-03-21T07:51:27Z</time>
      </trkpt>
      <trkpt lat="49.06124" lon="6.65842">
        <ele>276.52</ele>
        <time>2021-03-21T07:51:51Z</time>
      </trkpt>
      <trkpt lat="49.06147" lon="6.65807">
        <ele>277.96</ele>
        <time>2021-03-21T07:52:16Z</time>
      </trkpt>
      <trkpt lat="49.06175" lon="6.65769">
        <ele>279.4</ele>
        <time>2021-03-21T07:52:44Z</time>
      </trkpt>
      <trkpt lat="49.06196" lon="6.65733">
        <ele>282.28</ele>
        <time>2021-03-21T07:53:08Z</time>
      </trkpt>
      <trkpt lat="49.06224" lon="6.65686">
        <ele>284.21</ele>
        <time>2021-03-21T07:53:38Z</time>
      </trkpt>
      <trkpt lat="49.0625" lon="6.6565">
        <ele>286.13</ele>
        <time>2021-03-21T07:54:05Z</time>
      </trkpt>
      <trkpt lat="49.0627" lon="6.65621">
        <ele>286.61</ele>
        <time>2021-03-21T07:54:27Z</time>
      </trkpt>
      <trkpt lat="49.06291" lon="6.65596">
        <ele>288.53</ele>
        <time>2021-03-21T07:54:47Z</time>
      </trkpt>
      <trkpt lat="49.06309" lon="6.6557">
        <ele>289.01</ele>
        <time>2021-03-21T07:55:07Z</time>
      </trkpt>
      <trkpt lat="49.06332" lon="6.65545">
        <ele>290.46</ele>
        <time>2021-03-21T07:55:29Z</time>
      </trkpt>
      <trkpt lat="49.06363" lon="6.65535">
        <ele>292.38</ele>
        <time>2021-03-21T07:55:50Z</time>
      </trkpt>
      <trkpt lat="49.06394" lon="6.65533">
        <ele>294.3</ele>
        <time>2021-03-21T07:56:11Z</time>
      </trkpt>
      <trkpt lat="49.06422" lon="6.65529">
        <ele>296.22</ele>
        <time>2021-03-21T07:56:33Z</time>
      </trkpt>
      <trkpt lat="49.06446" lon="6.65521">
        <ele>298.15</ele>
        <time>2021-03-21T07:56:53Z</time>
      </trkpt>
      <trkpt lat="49.06472" lon="6.65508">
        <ele>300.55</ele>
        <time>2021-03-21T07:57:16Z</time>
      </trkpt>
      <trkpt lat="49.06496" lon="6.65487">
        <ele>302.47</ele>
        <time>2021-03-21T07:57:38Z</time>
      </trkpt>
      <trkpt lat="49.06515" lon="6.65483">
        <ele>303.91</ele>
        <time>2021-03-21T07:57:55Z</time>
      </trkpt>
      <trkpt lat="49.06528" lon="6.65504">
        <ele>305.84</ele>
        <time>2021-03-21T07:58:09Z</time>
      </trkpt>
      <trkpt lat="49.06542" lon="6.65533">
        <ele>306.8</ele>
        <time>2021-03-21T07:58:28Z</time>
      </trkpt>
      <trkpt lat="49.06558" lon="6.65565">
        <ele>308.24</ele>
        <time>2021-03-21T07:58:47Z</time>
      </trkpt>
      <trkpt lat="49.06574" lon="6.65597">
        <ele>311.12</ele>
        <time>2021-03-21T07:59:07Z</time>
      </trkpt>
      <trkpt lat="49.06589" lon="6.65629">
        <ele>312.09</ele>
        <time>2021-03-21T07:59:27Z</time>
      </trkpt>
      <trkpt lat="49.06605" lon="6.65661">
        <ele>313.53</ele>
        <time>2021-03-21T07:59:48Z</time>
      </trkpt>
      <trkpt lat="49.06625" lon="6.65699">
        <ele>314.97</ele>
        <time>2021-03-21T08:00:11Z</time>
      </trkpt>
      <trkpt lat="49.06642" lon="6.65737">
        <ele>314.01</ele>
        <time>2021-03-21T08:00:34Z</time>
      </trkpt>
      <trkpt lat="49.06661" lon="6.65769">
        <ele>314.49</ele>
        <time>2021-03-21T08:00:55Z</time>
      </trkpt>
      <trkpt lat="49.06681" lon="6.65806">
        <ele>313.53</ele>
        <time>2021-03-21T08:01:17Z</time>
      </trkpt>
      <trkpt lat="49.06699" lon="6.6582">
        <ele>313.53</ele>
        <time>2021-03-21T08:01:33Z</time>
      </trkpt>
      <trkpt lat="49.06712" lon="6.65854">
        <ele>311.12</ele>
        <time>2021-03-21T08:01:52Z</time>
      </trkpt>
      <trkpt lat="49.06715" lon="6.65866">
        <ele>310.16</ele>
        <time>2021-03-21T08:01:58Z</time>
      </trkpt>
      <trkpt lat="49.06722" lon="6.65872">
        <ele>309.68</ele>
        <time>2021-03-21T08:02:07Z</time>
      </trkpt>
      <trkpt lat="49.06747" lon="6.65866">
        <ele>311.12</ele>
        <time>2021-03-21T08:02:27Z</time>
      </trkpt>
      <trkpt lat="49.06773" lon="6.65875">
        <ele>310.64</ele>
        <time>2021-03-21T08:02:48Z</time>
      </trkpt>
      <trkpt lat="49.06798" lon="6.65888">
        <ele>310.64</ele>
        <time>2021-03-21T08:03:07Z</time>
      </trkpt>
      <trkpt lat="49.06819" lon="6.65903">
        <ele>311.6</ele>
        <time>2021-03-21T08:03:26Z</time>
      </trkpt>
      <trkpt lat="49.06827" lon="6.65934">
        <ele>311.12</ele>
        <time>2021-03-21T08:03:43Z</time>
      </trkpt>
      <trkpt lat="49.06828" lon="6.65935">
        <ele>310.64</ele>
        <time>2021-03-21T08:03:44Z</time>
      </trkpt>
      <trkpt lat="49.0684" lon="6.65983">
        <ele>311.12</ele>
        <time>2021-03-21T08:04:08Z</time>
      </trkpt>
      <trkpt lat="49.06847" lon="6.66023">
        <ele>310.64</ele>
        <time>2021-03-21T08:04:28Z</time>
      </trkpt>
      <trkpt lat="49.06856" lon="6.66058">
        <ele>310.16</ele>
        <time>2021-03-21T08:04:46Z</time>
      </trkpt>
      <trkpt lat="49.06866" lon="6.661">
        <ele>310.64</ele>
        <time>2021-03-21T08:05:06Z</time>
      </trkpt>
      <trkpt lat="49.06874" lon="6.66145">
        <ele>310.16</ele>
        <time>2021-03-21T08:05:27Z</time>
      </trkpt>
      <trkpt lat="49.06885" lon="6.66196">
        <ele>310.64</ele>
        <time>2021-03-21T08:05:52Z</time>
      </trkpt>
      <trkpt lat="49.06897" lon="6.66248">
        <ele>311.6</ele>
        <time>2021-03-21T08:06:18Z</time>
      </trkpt>
      <trkpt lat="49.06913" lon="6.66298">
        <ele>313.05</ele>
        <time>2021-03-21T08:06:45Z</time>
      </trkpt>
      <trkpt lat="49.06909" lon="6.66344">
        <ele>315.45</ele>
        <time>2021-03-21T08:07:07Z</time>
      </trkpt>
      <trkpt lat="49.06904" lon="6.66385">
        <ele>316.41</ele>
        <time>2021-03-21T08:07:27Z</time>
      </trkpt>
      <trkpt lat="49.06879" lon="6.66417">
        <ele>314.49</ele>
        <time>2021-03-21T08:07:50Z</time>
      </trkpt>
      <trkpt lat="49.06853" lon="6.66447">
        <ele>315.45</ele>
        <time>2021-03-21T08:08:14Z</time>
      </trkpt>
      <trkpt lat="49.06853" lon="6.66455">
        <ele>315.45</ele>
        <time>2021-03-21T08:08:19Z</time>
      </trkpt>
      <trkpt lat="49.06855" lon="6.66459">
        <ele>315.93</ele>
        <time>2021-03-21T08:08:21Z</time>
      </trkpt>
      <trkpt lat="49.06861" lon="6.66465">
        <ele>316.89</ele>
        <time>2021-03-21T08:08:27Z</time>
      </trkpt>
      <trkpt lat="49.06892" lon="6.66484">
        <ele>319.78</ele>
        <time>2021-03-21T08:08:52Z</time>
      </trkpt>
      <trkpt lat="49.06924" lon="6.66487">
        <ele>322.18</ele>
        <time>2021-03-21T08:09:15Z</time>
      </trkpt>
      <trkpt lat="49.06946" lon="6.6648">
        <ele>322.18</ele>
        <time>2021-03-21T08:09:34Z</time>
      </trkpt>
      <trkpt lat="49.06972" lon="6.66462">
        <ele>323.14</ele>
        <time>2021-03-21T08:09:57Z</time>
      </trkpt>
      <trkpt lat="49.06992" lon="6.66428">
        <ele>323.62</ele>
        <time>2021-03-21T08:10:20Z</time>
      </trkpt>
      <trkpt lat="49.07008" lon="6.66399">
        <ele>324.1</ele>
        <time>2021-03-21T08:10:38Z</time>
      </trkpt>
      <trkpt lat="49.07026" lon="6.66374">
        <ele>324.58</ele>
        <time>2021-03-21T08:10:59Z</time>
      </trkpt>
      <trkpt lat="49.07051" lon="6.6635">
        <ele>325.06</ele>
        <time>2021-03-21T08:11:21Z</time>
      </trkpt>
      <trkpt lat="49.07079" lon="6.66329">
        <ele>324.58</ele>
        <time>2021-03-21T08:11:45Z</time>
      </trkpt>
      <trkpt lat="49.071" lon="6.66312">
        <ele>325.06</ele>
        <time>2021-03-21T08:12:04Z</time>
      </trkpt>
      <trkpt lat="49.07121" lon="6.66293">
        <ele>326.5</ele>
        <time>2021-03-21T08:12:24Z</time>
      </trkpt>
      <trkpt lat="49.07152" lon="6.66273">
        <ele>326.99</ele>
        <time>2021-03-21T08:12:44Z</time>
      </trkpt>
      <trkpt lat="49.07174" lon="6.66257">
        <ele>326.5</ele>
        <time>2021-03-21T08:13:06Z</time>
      </trkpt>
      <trkpt lat="49.07191" lon="6.66243">
        <ele>327.95</ele>
        <time>2021-03-21T08:13:24Z</time>
      </trkpt>
      <trkpt lat="49.07214" lon="6.66225">
        <ele>327.95</ele>
        <time>2021-03-21T08:13:44Z</time>
      </trkpt>
      <trkpt lat="49.07233" lon="6.6621">
        <ele>327.95</ele>
        <time>2021-03-21T08:14:01Z</time>
      </trkpt>
      <trkpt lat="49.07254" lon="6.66194">
        <ele>327.95</ele>
        <time>2021-03-21T08:14:20Z</time>
      </trkpt>
      <trkpt lat="49.07275" lon="6.66177">
        <ele>327.95</ele>
        <time>2021-03-21T08:14:39Z</time>
      </trkpt>
      <trkpt lat="49.07298" lon="6.6616">
        <ele>327.95</ele>
        <time>2021-03-21T08:14:58Z</time>
      </trkpt>
      <trkpt lat="49.07317" lon="6.66147">
        <ele>328.43</ele>
        <time>2021-03-21T08:15:12Z</time>
      </trkpt>
      <trkpt lat="49.07345" lon="6.6613">
        <ele>328.43</ele>
        <time>2021-03-21T08:15:30Z</time>
      </trkpt>
      <trkpt lat="49.07378" lon="6.66111">
        <ele>329.39</ele>
        <time>2021-03-21T08:15:52Z</time>
      </trkpt>
      <trkpt lat="49.07404" lon="6.66095">
        <ele>329.39</ele>
        <time>2021-03-21T08:16:12Z</time>
      </trkpt>
      <trkpt lat="49.07432" lon="6.6608">
        <ele>329.87</ele>
        <time>2021-03-21T08:16:31Z</time>
      </trkpt>
      <trkpt lat="49.07454" lon="6.6607">
        <ele>330.83</ele>
        <time>2021-03-21T08:16:47Z</time>
      </trkpt>
      <trkpt lat="49.07481" lon="6.66065">
        <ele>330.83</ele>
        <time>2021-03-21T08:17:05Z</time>
      </trkpt>
      <trkpt lat="49.07488" lon="6.66063">
        <ele>330.83</ele>
        <time>2021-03-21T08:17:24Z</time>
      </trkpt>
      <trkpt lat="49.07517" lon="6.66056">
        <ele>331.31</ele>
        <time>2021-03-21T08:17:44Z</time>
      </trkpt>
      <trkpt lat="49.07548" lon="6.66052">
        <ele>332.27</ele>
        <time>2021-03-21T08:18:07Z</time>
      </trkpt>
      <trkpt lat="49.07566" lon="6.66054">
        <ele>332.75</ele>
        <time>2021-03-21T08:18:24Z</time>
      </trkpt>
      <trkpt lat="49.07596" lon="6.66054">
        <ele>333.23</ele>
        <time>2021-03-21T08:18:47Z</time>
      </trkpt>
      <trkpt lat="49.07627" lon="6.66054">
        <ele>333.71</ele>
        <time>2021-03-21T08:19:08Z</time>
      </trkpt>
      <trkpt lat="49.0765" lon="6.66051">
        <ele>333.71</ele>
        <time>2021-03-21T08:19:25Z</time>
      </trkpt>
      <trkpt lat="49.07681" lon="6.66048">
        <ele>334.2</ele>
        <time>2021-03-21T08:19:47Z</time>
      </trkpt>
      <trkpt lat="49.07706" lon="6.66044">
        <ele>334.68</ele>
        <time>2021-03-21T08:20:07Z</time>
      </trkpt>
      <trkpt lat="49.0774" lon="6.6604">
        <ele>335.16</ele>
        <time>2021-03-21T08:20:29Z</time>
      </trkpt>
      <trkpt lat="49.07776" lon="6.66036">
        <ele>335.64</ele>
        <time>2021-03-21T08:20:54Z</time>
      </trkpt>
      <trkpt lat="49.07801" lon="6.66037">
        <ele>336.6</ele>
        <time>2021-03-21T08:21:12Z</time>
      </trkpt>
      <trkpt lat="49.07827" lon="6.66037">
        <ele>337.08</ele>
        <time>2021-03-21T08:21:33Z</time>
      </trkpt>
      <trkpt lat="49.07852" lon="6.66039">
        <ele>337.08</ele>
        <time>2021-03-21T08:21:53Z</time>
      </trkpt>
      <trkpt lat="49.07883" lon="6.66051">
        <ele>338.04</ele>
        <time>2021-03-21T08:22:16Z</time>
      </trkpt>
      <trkpt lat="49.07913" lon="6.66068">
        <ele>338.52</ele>
        <time>2021-03-21T08:22:38Z</time>
      </trkpt>
      <trkpt lat="49.07935" lon="6.66084">
        <ele>338.52</ele>
        <time>2021-03-21T08:22:59Z</time>
      </trkpt>
      <trkpt lat="49.0795" lon="6.66097">
        <ele>339</ele>
        <time>2021-03-21T08:23:15Z</time>
      </trkpt>
      <trkpt lat="49.07968" lon="6.66115">
        <ele>339.96</ele>
        <time>2021-03-21T08:23:31Z</time>
      </trkpt>
      <trkpt lat="49.08" lon="6.6614">
        <ele>339.48</ele>
        <time>2021-03-21T08:23:53Z</time>
      </trkpt>
      <trkpt lat="49.08021" lon="6.66171">
        <ele>340.44</ele>
        <time>2021-03-21T08:24:14Z</time>
      </trkpt>
      <trkpt lat="49.08044" lon="6.66201">
        <ele>340.44</ele>
        <time>2021-03-21T08:24:34Z</time>
      </trkpt>
      <trkpt lat="49.08061" lon="6.66227">
        <ele>341.89</ele>
        <time>2021-03-21T08:24:51Z</time>
      </trkpt>
      <trkpt lat="49.0808" lon="6.66253">
        <ele>342.37</ele>
        <time>2021-03-21T08:25:09Z</time>
      </trkpt>
      <trkpt lat="49.08094" lon="6.66271">
        <ele>342.85</ele>
        <time>2021-03-21T08:25:22Z</time>
      </trkpt>
      <trkpt lat="49.0811" lon="6.66298">
        <ele>342.85</ele>
        <time>2021-03-21T08:25:40Z</time>
      </trkpt>
      <trkpt lat="49.08129" lon="6.66321">
        <ele>343.81</ele>
        <time>2021-03-21T08:25:57Z</time>
      </trkpt>
      <trkpt lat="49.08141" lon="6.66341">
        <ele>344.29</ele>
        <time>2021-03-21T08:26:10Z</time>
      </trkpt>
      <trkpt lat="49.08165" lon="6.6637">
        <ele>345.25</ele>
        <time>2021-03-21T08:26:31Z</time>
      </trkpt>
      <trkpt lat="49.08183" lon="6.66401">
        <ele>345.25</ele>
        <time>2021-03-21T08:26:51Z</time>
      </trkpt>
      <trkpt lat="49.08201" lon="6.66427">
        <ele>346.21</ele>
        <time>2021-03-21T08:27:09Z</time>
      </trkpt>
      <trkpt lat="49.0822" lon="6.66465">
        <ele>347.65</ele>
        <time>2021-03-21T08:27:31Z</time>
      </trkpt>
      <trkpt lat="49.08235" lon="6.66499">
        <ele>348.13</ele>
        <time>2021-03-21T08:27:51Z</time>
      </trkpt>
      <trkpt lat="49.08245" lon="6.66525">
        <ele>348.13</ele>
        <time>2021-03-21T08:28:06Z</time>
      </trkpt>
      <trkpt lat="49.08256" lon="6.6656">
        <ele>348.62</ele>
        <time>2021-03-21T08:28:26Z</time>
      </trkpt>
      <trkpt lat="49.08267" lon="6.66595">
        <ele>349.1</ele>
        <time>2021-03-21T08:28:45Z</time>
      </trkpt>
      <trkpt lat="49.0828" lon="6.66635">
        <ele>349.1</ele>
        <time>2021-03-21T08:29:08Z</time>
      </trkpt>
      <trkpt lat="49.08287" lon="6.66657">
        <ele>349.1</ele>
        <time>2021-03-21T08:29:25Z</time>
      </trkpt>
      <trkpt lat="49.08295" lon="6.66679">
        <ele>349.58</ele>
        <time>2021-03-21T08:29:40Z</time>
      </trkpt>
      <trkpt lat="49.08301" lon="6.66704">
        <ele>350.06</ele>
        <time>2021-03-21T08:29:57Z</time>
      </trkpt>
      <trkpt lat="49.08309" lon="6.66729">
        <ele>350.06</ele>
        <time>2021-03-21T08:30:13Z</time>
      </trkpt>
      <trkpt lat="49.08321" lon="6.6677">
        <ele>350.54</ele>
        <time>2021-03-21T08:30:36Z</time>
      </trkpt>
      <trkpt lat="49.08332" lon="6.66827">
        <ele>351.02</ele>
        <time>2021-03-21T08:31:04Z</time>
      </trkpt>
      <trkpt lat="49.08336" lon="6.66876">
        <ele>351.02</ele>
        <time>2021-03-21T08:31:28Z</time>
      </trkpt>
      <trkpt lat="49.08336" lon="6.6688">
        <ele>351.5</ele>
        <time>2021-03-21T08:31:30Z</time>
      </trkpt>
      <trkpt lat="49.08336" lon="6.66888">
        <ele>351.02</ele>
        <time>2021-03-21T08:31:34Z</time>
      </trkpt>
      <trkpt lat="49.08338" lon="6.66948">
        <ele>351.02</ele>
        <time>2021-03-21T08:32:03Z</time>
      </trkpt>
      <trkpt lat="49.08341" lon="6.66987">
        <ele>351.5</ele>
        <time>2021-03-21T08:32:22Z</time>
      </trkpt>
      <trkpt lat="49.08352" lon="6.67023">
        <ele>351.02</ele>
        <time>2021-03-21T08:32:42Z</time>
      </trkpt>
      <trkpt lat="49.08364" lon="6.67069">
        <ele>351.98</ele>
        <time>2021-03-21T08:33:06Z</time>
      </trkpt>
      <trkpt lat="49.08379" lon="6.67118">
        <ele>352.46</ele>
        <time>2021-03-21T08:33:32Z</time>
      </trkpt>
      <trkpt lat="49.08391" lon="6.67161">
        <ele>351.98</ele>
        <time>2021-03-21T08:33:55Z</time>
      </trkpt>
      <trkpt lat="49.08403" lon="6.672">
        <ele>351.98</ele>
        <time>2021-03-21T08:34:15Z</time>
      </trkpt>
      <trkpt lat="49.08419" lon="6.67239">
        <ele>353.42</ele>
        <time>2021-03-21T08:34:36Z</time>
      </trkpt>
      <trkpt lat="49.0842" lon="6.6728">
        <ele>352.94</ele>
        <time>2021-03-21T08:34:57Z</time>
      </trkpt>
      <trkpt lat="49.08427" lon="6.67312">
        <ele>352.94</ele>
        <time>2021-03-21T08:35:14Z</time>
      </trkpt>
      <trkpt lat="49.08437" lon="6.67352">
        <ele>352.94</ele>
        <time>2021-03-21T08:35:34Z</time>
      </trkpt>
      <trkpt lat="49.08457" lon="6.67401">
        <ele>352.94</ele>
        <time>2021-03-21T08:35:58Z</time>
      </trkpt>
      <trkpt lat="49.0847" lon="6.67445">
        <ele>352.94</ele>
        <time>2021-03-21T08:36:21Z</time>
      </trkpt>
      <trkpt lat="49.08487" lon="6.67497">
        <ele>353.42</ele>
        <time>2021-03-21T08:36:48Z</time>
      </trkpt>
      <trkpt lat="49.08499" lon="6.67541">
        <ele>353.42</ele>
        <time>2021-03-21T08:37:10Z</time>
      </trkpt>
      <trkpt lat="49.08514" lon="6.67595">
        <ele>352.94</ele>
        <time>2021-03-21T08:37:38Z</time>
      </trkpt>
      <trkpt lat="49.08521" lon="6.67616">
        <ele>352.94</ele>
        <time>2021-03-21T08:37:55Z</time>
      </trkpt>
      <trkpt lat="49.08529" lon="6.67651">
        <ele>352.94</ele>
        <time>2021-03-21T08:38:14Z</time>
      </trkpt>
      <trkpt lat="49.08541" lon="6.67694">
        <ele>353.42</ele>
        <time>2021-03-21T08:38:37Z</time>
      </trkpt>
      <trkpt lat="49.08553" lon="6.67739">
        <ele>352.94</ele>
        <time>2021-03-21T08:39:01Z</time>
      </trkpt>
      <trkpt lat="49.08554" lon="6.67743">
        <ele>352.94</ele>
        <time>2021-03-21T08:39:03Z</time>
      </trkpt>
      <trkpt lat="49.08564" lon="6.67757">
        <ele>352.46</ele>
        <time>2021-03-21T08:39:14Z</time>
      </trkpt>
      <trkpt lat="49.08572" lon="6.67803">
        <ele>352.94</ele>
        <time>2021-03-21T08:39:35Z</time>
      </trkpt>
      <trkpt lat="49.08585" lon="6.67858">
        <ele>353.9</ele>
        <time>2021-03-21T08:40:02Z</time>
      </trkpt>
      <trkpt lat="49.08592" lon="6.67907">
        <ele>354.38</ele>
        <time>2021-03-21T08:40:26Z</time>
      </trkpt>
      <trkpt lat="49.08596" lon="6.67966">
        <ele>354.86</ele>
        <time>2021-03-21T08:40:54Z</time>
      </trkpt>
      <trkpt lat="49.08598" lon="6.68019">
        <ele>354.86</ele>
        <time>2021-03-21T08:41:20Z</time>
      </trkpt>
      <trkpt lat="49.086" lon="6.6807">
        <ele>355.34</ele>
        <time>2021-03-21T08:41:43Z</time>
      </trkpt>
      <trkpt lat="49.08608" lon="6.68122">
        <ele>355.34</ele>
        <time>2021-03-21T08:42:07Z</time>
      </trkpt>
      <trkpt lat="49.08621" lon="6.68159">
        <ele>354.86</ele>
        <time>2021-03-21T08:42:26Z</time>
      </trkpt>
      <trkpt lat="49.08632" lon="6.682">
        <ele>353.9</ele>
        <time>2021-03-21T08:42:47Z</time>
      </trkpt>
      <trkpt lat="49.08651" lon="6.68239">
        <ele>352.94</ele>
        <time>2021-03-21T08:43:10Z</time>
      </trkpt>
      <trkpt lat="49.08671" lon="6.68269">
        <ele>352.94</ele>
        <time>2021-03-21T08:43:30Z</time>
      </trkpt>
      <trkpt lat="49.08699" lon="6.683">
        <ele>351.5</ele>
        <time>2021-03-21T08:43:54Z</time>
      </trkpt>
      <trkpt lat="49.08726" lon="6.68322">
        <ele>350.54</ele>
        <time>2021-03-21T08:44:16Z</time>
      </trkpt>
      <trkpt lat="49.08754" lon="6.68338">
        <ele>348.62</ele>
        <time>2021-03-21T08:44:36Z</time>
      </trkpt>
      <trkpt lat="49.08777" lon="6.68346">
        <ele>347.65</ele>
        <time>2021-03-21T08:44:52Z</time>
      </trkpt>
      <trkpt lat="49.08803" lon="6.68358">
        <ele>345.25</ele>
        <time>2021-03-21T08:45:12Z</time>
      </trkpt>
      <trkpt lat="49.08831" lon="6.6837">
        <ele>343.33</ele>
        <time>2021-03-21T08:45:33Z</time>
      </trkpt>
      <trkpt lat="49.08868" lon="6.68386">
        <ele>340.92</ele>
        <time>2021-03-21T08:45:59Z</time>
      </trkpt>
      <trkpt lat="49.08893" lon="6.68404">
        <ele>338.52</ele>
        <time>2021-03-21T08:46:19Z</time>
      </trkpt>
      <trkpt lat="49.08918" lon="6.68427">
        <ele>336.12</ele>
        <time>2021-03-21T08:46:40Z</time>
      </trkpt>
      <trkpt lat="49.08939" lon="6.68454">
        <ele>334.2</ele>
        <time>2021-03-21T08:47:00Z</time>
      </trkpt>
      <trkpt lat="49.08958" lon="6.68487">
        <ele>331.31</ele>
        <time>2021-03-21T08:47:21Z</time>
      </trkpt>
      <trkpt lat="49.08978" lon="6.68532">
        <ele>328.91</ele>
        <time>2021-03-21T08:47:45Z</time>
      </trkpt>
      <trkpt lat="49.08992" lon="6.68576">
        <ele>325.54</ele>
        <time>2021-03-21T08:48:06Z</time>
      </trkpt>
      <trkpt lat="49.09002" lon="6.68617">
        <ele>325.06</ele>
        <time>2021-03-21T08:48:26Z</time>
      </trkpt>
      <trkpt lat="49.09008" lon="6.6867">
        <ele>322.18</ele>
        <time>2021-03-21T08:48:51Z</time>
      </trkpt>
      <trkpt lat="49.0901" lon="6.6872">
        <ele>321.7</ele>
        <time>2021-03-21T08:49:14Z</time>
      </trkpt>
      <trkpt lat="49.09007" lon="6.68773">
        <ele>320.26</ele>
        <time>2021-03-21T08:49:38Z</time>
      </trkpt>
      <trkpt lat="49.09004" lon="6.68826">
        <ele>319.78</ele>
        <time>2021-03-21T08:50:02Z</time>
      </trkpt>
      <trkpt lat="49.09004" lon="6.68856">
        <ele>319.3</ele>
        <time>2021-03-21T08:50:19Z</time>
      </trkpt>
      <trkpt lat="49.0901" lon="6.6886">
        <ele>319.3</ele>
        <time>2021-03-21T08:50:25Z</time>
      </trkpt>
      <trkpt lat="49.09043" lon="6.68865">
        <ele>319.78</ele>
        <time>2021-03-21T08:50:49Z</time>
      </trkpt>
      <trkpt lat="49.0908" lon="6.68872">
        <ele>321.22</ele>
        <time>2021-03-21T08:51:16Z</time>
      </trkpt>
      <trkpt lat="49.09095" lon="6.68888">
        <ele>321.7</ele>
        <time>2021-03-21T08:51:36Z</time>
      </trkpt>
      <trkpt lat="49.09095" lon="6.6889">
        <ele>321.22</ele>
        <time>2021-03-21T08:51:37Z</time>
      </trkpt>
      <trkpt lat="49.09094" lon="6.68892">
        <ele>321.7</ele>
        <time>2021-03-21T08:51:39Z</time>
      </trkpt>
      <trkpt lat="49.09092" lon="6.689">
        <ele>321.22</ele>
        <time>2021-03-21T08:51:44Z</time>
      </trkpt>
      <trkpt lat="49.09063" lon="6.68945">
        <ele>317.85</ele>
        <time>2021-03-21T08:52:13Z</time>
      </trkpt>
      <trkpt lat="49.09043" lon="6.68977">
        <ele>314.97</ele>
        <time>2021-03-21T08:52:35Z</time>
      </trkpt>
      <trkpt lat="49.09039" lon="6.68985">
        <ele>314.97</ele>
        <time>2021-03-21T08:52:40Z</time>
      </trkpt>
      <trkpt lat="49.0902" lon="6.69013">
        <ele>313.05</ele>
        <time>2021-03-21T08:52:59Z</time>
      </trkpt>
      <trkpt lat="49.08993" lon="6.69055">
        <ele>310.64</ele>
        <time>2021-03-21T08:53:23Z</time>
      </trkpt>
      <trkpt lat="49.08967" lon="6.69095">
        <ele>307.76</ele>
        <time>2021-03-21T08:53:49Z</time>
      </trkpt>
      <trkpt lat="49.08938" lon="6.69124">
        <ele>304.88</ele>
        <time>2021-03-21T08:54:13Z</time>
      </trkpt>
      <trkpt lat="49.08908" lon="6.69153">
        <ele>301.99</ele>
        <time>2021-03-21T08:54:38Z</time>
      </trkpt>
      <trkpt lat="49.08884" lon="6.69176">
        <ele>300.07</ele>
        <time>2021-03-21T08:54:58Z</time>
      </trkpt>
      <trkpt lat="49.08854" lon="6.69208">
        <ele>297.18</ele>
        <time>2021-03-21T08:55:23Z</time>
      </trkpt>
      <trkpt lat="49.08826" lon="6.69237">
        <ele>294.3</ele>
        <time>2021-03-21T08:55:45Z</time>
      </trkpt>
      <trkpt lat="49.08821" lon="6.69244">
        <ele>293.82</ele>
        <time>2021-03-21T08:55:52Z</time>
      </trkpt>
      <trkpt lat="49.08829" lon="6.69246">
        <ele>294.3</ele>
        <time>2021-03-21T08:55:58Z</time>
      </trkpt>
      <trkpt lat="49.08837" lon="6.69258">
        <ele>296.22</ele>
        <time>2021-03-21T08:56:18Z</time>
      </trkpt>
      <trkpt lat="49.08837" lon="6.69256">
        <ele>296.22</ele>
        <time>2021-03-21T08:56:43Z</time>
      </trkpt>
      <trkpt lat="49.0884" lon="6.69255">
        <ele>296.22</ele>
        <time>2021-03-21T08:57:09Z</time>
      </trkpt>
      <trkpt lat="49.08839" lon="6.69255">
        <ele>296.7</ele>
        <time>2021-03-21T08:57:25Z</time>
      </trkpt>
      <trkpt lat="49.08826" lon="6.69245">
        <ele>294.78</ele>
        <time>2021-03-21T08:57:35Z</time>
      </trkpt>
      <trkpt lat="49.08817" lon="6.69248">
        <ele>294.3</ele>
        <time>2021-03-21T08:57:42Z</time>
      </trkpt>
      <trkpt lat="49.08791" lon="6.6927">
        <ele>292.38</ele>
        <time>2021-03-21T08:58:03Z</time>
      </trkpt>
      <trkpt lat="49.08762" lon="6.693">
        <ele>291.42</ele>
        <time>2021-03-21T08:58:28Z</time>
      </trkpt>
      <trkpt lat="49.08735" lon="6.69335">
        <ele>290.94</ele>
        <time>2021-03-21T08:58:52Z</time>
      </trkpt>
      <trkpt lat="49.08717" lon="6.69364">
        <ele>291.42</ele>
        <time>2021-03-21T08:59:12Z</time>
      </trkpt>
      <trkpt lat="49.08714" lon="6.69359">
        <ele>291.42</ele>
        <time>2021-03-21T08:59:26Z</time>
      </trkpt>
      <trkpt lat="49.08709" lon="6.69361">
        <ele>291.42</ele>
        <time>2021-03-21T08:59:46Z</time>
      </trkpt>
      <trkpt lat="49.08717" lon="6.69366">
        <ele>290.94</ele>
        <time>2021-03-21T09:00:09Z</time>
      </trkpt>
      <trkpt lat="49.08719" lon="6.69363">
        <ele>292.86</ele>
        <time>2021-03-21T09:00:20Z</time>
      </trkpt>
      <trkpt lat="49.08703" lon="6.69374">
        <ele>291.42</ele>
        <time>2021-03-21T09:00:41Z</time>
      </trkpt>
      <trkpt lat="49.08699" lon="6.69379">
        <ele>292.86</ele>
        <time>2021-03-21T09:01:06Z</time>
      </trkpt>
      <trkpt lat="49.08707" lon="6.69377">
        <ele>292.86</ele>
        <time>2021-03-21T09:01:28Z</time>
      </trkpt>
    </trkseg>
  </trk>
</gpx>